createdAt,value
2023-03-02T00:01:40.288Z,3.60
2023-03-02T00:06:44.244Z,3.50
2023-03-02T00:11:48.327Z,3.40
2023-03-02T00:16:52.336Z,3.40
2023-03-02T00:21:56.488Z,3.32
2023-03-02T00:27:00.179Z,3.40
2023-03-02T00:32:07.117Z,3.68
2023-03-02T00:37:11.388Z,3.70
2023-03-02T00:42:15.074Z,3.62
2023-03-02T00:47:18.885Z,3.52
2023-03-02T00:52:22.750Z,3.50
2023-03-02T00:57:27.289Z,3.40
2023-03-02T01:02:32.673Z,3.40
2023-03-02T01:07:36.595Z,3.50
2023-03-02T01:12:40.984Z,3.70
2023-03-02T01:17:44.986Z,3.80
2023-03-02T01:22:48.832Z,3.70
2023-03-02T01:27:56.371Z,3.56
2023-03-02T01:33:00.113Z,3.46
2023-03-02T01:38:07.463Z,3.38
2023-03-02T01:43:17.053Z,3.30
2023-03-02T01:48:47.347Z,3.20
2023-03-02T01:54:01.466Z,3.10
2023-03-02T01:59:12.405Z,3.00
2023-03-02T02:12:46.649Z,2.86
2023-03-02T02:17:54.797Z,3.06
2023-03-02T02:23:49.247Z,2.90
2023-03-02T02:29:01.060Z,2.62
2023-03-02T02:34:23.055Z,2.40
2023-03-02T02:39:33.908Z,2.20
2023-03-02T02:44:37.949Z,2.10
2023-03-02T02:49:42.693Z,2.00
2023-03-02T02:54:51.622Z,1.90
2023-03-02T03:00:00.947Z,1.90
2023-03-02T03:05:05.705Z,2.00
2023-03-02T03:10:40.469Z,2.00
2023-03-02T03:15:44.501Z,2.00
2023-03-02T03:21:39.228Z,1.90
2023-03-02T03:26:43.870Z,1.70
2023-03-02T03:31:47.594Z,1.50
2023-03-02T03:37:41.602Z,1.40
2023-03-02T03:42:45.489Z,1.42
2023-03-02T03:47:49.330Z,1.60
2023-03-02T03:52:53.063Z,1.80
2023-03-02T03:58:22.571Z,1.80
2023-03-02T04:03:27.459Z,1.70
2023-03-02T04:08:31.271Z,1.52
2023-03-02T04:13:34.986Z,1.40
2023-03-02T04:18:38.809Z,1.40
2023-03-02T04:25:00.164Z,1.50
2023-03-02T04:30:05.345Z,1.68
2023-03-02T04:35:09.990Z,1.60
2023-03-02T04:40:15.802Z,1.50
2023-03-02T04:45:20.004Z,1.40
2023-03-02T04:50:24.216Z,1.40
2023-03-02T04:55:28.861Z,1.40
2023-03-02T05:00:34.656Z,1.40
2023-03-02T05:05:38.946Z,1.40
2023-03-02T05:10:42.852Z,1.50
2023-03-02T05:24:17.230Z,1.50
2023-03-02T05:29:21.534Z,1.50
2023-03-02T05:35:16.768Z,1.50
2023-03-02T06:01:33.026Z,1.70
2023-03-02T06:06:37.552Z,1.78
2023-03-02T06:18:49.842Z,1.94
2023-03-02T06:24:44.535Z,2.00
2023-03-02T06:29:48.517Z,1.90
2023-03-02T06:34:52.466Z,1.90
2023-03-02T06:39:58.255Z,1.90
2023-03-02T06:45:02.519Z,2.00
2023-03-02T06:50:07.565Z,2.10
2023-03-02T06:55:33.296Z,2.20
2023-03-02T07:01:54.964Z,2.30
2023-03-02T07:06:59.010Z,2.30
2023-03-02T07:18:56.230Z,2.40
2023-03-02T07:24:50.474Z,2.40
2023-03-02T07:30:21.584Z,2.50
2023-03-02T07:35:26.072Z,2.50
2023-03-02T07:40:55.261Z,2.44
2023-03-02T07:52:48.385Z,2.60
2023-03-02T07:57:52.543Z,2.70
2023-03-02T08:02:56.380Z,2.78
2023-03-02T08:08:00.196Z,2.70
2023-03-02T08:20:12.930Z,2.86
2023-03-02T08:25:17.099Z,2.82
2023-03-02T08:30:21.131Z,2.80
2023-03-02T08:35:26.756Z,2.80
2023-03-02T08:40:56.420Z,2.90
2023-03-02T08:47:23.070Z,3.04
2023-03-02T08:52:27.284Z,3.30
2023-03-02T08:57:48.090Z,3.30
2023-03-02T09:03:42.599Z,3.50
2023-03-02T09:16:20.689Z,4.00
2023-03-02T09:30:00.175Z,5.30
2023-03-02T09:35:55.571Z,5.70
2023-03-02T09:41:21.481Z,5.90
2023-03-02T09:53:44.906Z,7.40
2023-03-02T09:59:31.769Z,8.00
2023-03-02T10:12:26.476Z,8.88
2023-03-02T10:18:11.725Z,9.80
2023-03-02T10:23:35.366Z,10.20
2023-03-02T10:28:49.809Z,10.20
2023-03-02T10:34:28.390Z,10.50
2023-03-02T10:39:34.402Z,10.90
2023-03-02T10:44:46.229Z,11.50
2023-03-02T10:50:53.798Z,11.60
2023-03-02T11:14:38.972Z,12.04
2023-03-02T11:19:44.457Z,11.76
2023-03-02T11:24:58.971Z,11.90
2023-03-02T11:30:23.494Z,11.90
2023-03-02T11:35:44.461Z,12.10
2023-03-02T11:40:53.452Z,12.00
2023-03-02T11:49:19.537Z,12.72
2023-03-02T11:54:46.595Z,12.80
2023-03-02T11:59:52.881Z,12.60
2023-03-02T12:05:25.230Z,12.60
2023-03-02T12:10:44.012Z,12.52
2023-03-02T12:15:51.295Z,12.56
2023-03-02T12:21:39.543Z,12.48
2023-03-02T12:26:43.335Z,12.40
2023-03-02T12:31:56.077Z,12.36
2023-03-02T12:37:08.026Z,12.30
2023-03-02T12:42:44.280Z,12.30
2023-03-02T12:48:02.273Z,12.00
2023-03-02T12:53:17.798Z,12.10
2023-03-02T12:58:28.782Z,12.60
2023-03-02T13:03:32.705Z,13.10
2023-03-02T13:08:38.606Z,13.26
2023-03-02T13:13:45.670Z,13.50
2023-03-02T13:18:57.499Z,14.12
2023-03-02T13:24:02.951Z,14.50
2023-03-02T13:29:15.138Z,15.06
2023-03-02T13:34:33.516Z,15.78
2023-03-02T13:39:37.755Z,16.64
2023-03-02T13:44:41.668Z,18.32
2023-03-02T13:49:46.058Z,21.94
2023-03-02T13:54:50.194Z,20.16
2023-03-02T13:59:55.397Z,18.30
2023-03-02T14:04:59.408Z,21.62
2023-03-02T14:10:04.806Z,25.00
2023-03-02T14:15:15.680Z,26.50
2023-03-02T14:20:21.220Z,26.84
2023-03-02T14:25:25.181Z,25.74
2023-03-02T14:30:29.494Z,26.70
2023-03-02T14:35:33.758Z,24.36
2023-03-02T14:40:38.514Z,25.02
2023-03-02T14:45:42.438Z,26.76
2023-03-02T14:50:50.878Z,27.50
2023-03-02T14:55:55.321Z,26.90
2023-03-02T15:01:00.357Z,26.86
2023-03-02T15:06:08.052Z,26.48
2023-03-02T15:11:12.910Z,25.58
2023-03-02T15:16:17.934Z,24.60
2023-03-02T15:21:25.266Z,24.00
2023-03-02T15:26:29.697Z,22.54
2023-03-02T15:31:35.329Z,18.16
2023-03-02T15:36:41.783Z,15.48
2023-03-02T15:41:47.992Z,13.54
2023-03-02T15:46:58.946Z,12.22
2023-03-02T15:52:03.201Z,11.06
2023-03-02T15:57:11.625Z,10.20
2023-03-02T16:02:17.836Z,9.40
2023-03-02T16:07:21.637Z,8.72
2023-03-02T16:12:28.046Z,8.24
2023-03-02T16:17:33.530Z,7.76
2023-03-02T16:22:39.469Z,7.36
2023-03-02T16:27:48.649Z,7.00
2023-03-02T16:32:52.751Z,6.70
2023-03-02T16:37:56.700Z,6.44
2023-03-02T16:43:00.724Z,6.20
2023-03-02T16:48:06.564Z,5.90
2023-03-02T16:53:10.506Z,5.70
2023-03-02T16:58:14.774Z,5.50
2023-03-02T17:03:19.118Z,5.30
2023-03-02T17:08:23.016Z,5.02
2023-03-02T17:13:27.452Z,4.84
2023-03-02T17:18:35.449Z,4.60
2023-03-02T17:23:42.494Z,4.30
2023-03-02T17:28:46.847Z,4.02
2023-03-02T17:33:51.577Z,3.80
2023-03-02T17:38:55.298Z,3.60
2023-03-02T17:44:03.636Z,3.40
2023-03-02T17:49:07.378Z,3.18
2023-03-02T17:54:11.472Z,3.00
2023-03-02T17:59:16.263Z,2.96
2023-03-02T18:04:20.683Z,2.90
2023-03-02T18:09:24.687Z,2.80
2023-03-02T18:14:32.060Z,2.70
2023-03-02T18:19:37.849Z,2.60
2023-03-02T18:24:42.680Z,2.60
2023-03-02T18:29:46.891Z,2.50
2023-03-02T18:34:51.055Z,2.40
2023-03-02T18:39:56.464Z,2.30
2023-03-02T18:45:01.220Z,2.30
2023-03-02T18:50:06.022Z,2.20
2023-03-02T18:55:12.477Z,2.10
2023-03-02T19:00:27.369Z,2.00
2023-03-02T19:05:31.896Z,1.90
2023-03-02T19:10:39.047Z,1.78
2023-03-02T19:15:44.368Z,1.60
2023-03-02T19:20:51.564Z,1.42
2023-03-02T19:25:57.034Z,1.30
2023-03-02T19:31:09.698Z,1.30
2023-03-02T19:36:14.609Z,1.20
2023-03-02T19:41:21.529Z,1.20
2023-03-02T19:46:27.486Z,1.10
2023-03-02T19:51:33.100Z,0.98
2023-03-02T19:56:40.651Z,0.90
2023-03-02T20:01:44.990Z,0.90
2023-03-02T20:06:49.826Z,0.90
2023-03-02T20:11:54.673Z,0.90
2023-03-02T20:16:58.850Z,0.90
2023-03-02T20:22:04.072Z,0.80
2023-03-02T20:27:09.091Z,0.80
2023-03-02T20:32:14.888Z,0.70
2023-03-02T20:37:18.995Z,0.60
2023-03-02T20:42:25.490Z,0.60
2023-03-02T20:47:30.755Z,0.60
2023-03-02T20:52:35.333Z,0.50
2023-03-02T20:57:39.693Z,0.50
2023-03-02T21:02:46.147Z,0.40
2023-03-02T21:07:52.939Z,0.40
2023-03-02T21:12:56.784Z,0.30
2023-03-02T21:18:03.805Z,0.20
2023-03-02T21:23:11.491Z,0.12
2023-03-02T21:28:15.518Z,0.10
2023-03-02T21:33:19.455Z,0.00
2023-03-02T21:38:23.614Z,-0.20
2023-03-02T21:43:27.637Z,-0.30
2023-03-02T21:48:32.404Z,-0.40
2023-03-02T21:53:38.971Z,-0.40
2023-03-02T21:58:43.186Z,-0.40
2023-03-02T22:03:47.108Z,-0.46
2023-03-02T22:08:51.963Z,-0.50
2023-03-02T22:14:00.948Z,-0.50
2023-03-02T22:19:27.332Z,-0.50
2023-03-02T22:24:34.106Z,-0.60
2023-03-02T22:29:48.122Z,-0.70
2023-03-02T22:34:56.306Z,-0.80
2023-03-02T22:40:27.817Z,-0.90
2023-03-02T22:45:31.951Z,-0.90
2023-03-02T22:50:37.423Z,-0.90
2023-03-02T22:55:43.690Z,-1.00
2023-03-02T23:00:48.958Z,-1.10
2023-03-02T23:05:53.597Z,-1.10
2023-03-02T23:10:59.735Z,-1.10
2023-03-02T23:16:26.248Z,-1.20
2023-03-02T23:21:42.236Z,-1.20
2023-03-02T23:26:46.182Z,-1.30
2023-03-02T23:31:50.819Z,-1.30
2023-03-02T23:36:54.556Z,-1.36
2023-03-02T23:41:58.444Z,-1.36
2023-03-02T23:47:02.411Z,-1.28
2023-03-02T23:52:06.349Z,-1.20
2023-03-02T23:57:10.368Z,-1.10
